Terminal Aerodrome Forecast
Issued by NWS

Home | Current Version | Previous Version | Text Only | Print | Product List | Glossary On
Versions: 1 2 3 4 5 6 7 8 9 10 11 12 13 14 15 16
000
FTUS46 KMTR 281500 AAA
TAFSTS
TAF AMD
KSTS 281511Z 2815/2912 00000KT 2SM BR OVC004
      TEMPO 2815/2817 00000KT 1/2SM FG OVC002
     FM281800 VRB04KT P6SM SKC
     FM282200 18009KT P6SM SKC
     FM290400 15005KT P6SM SKC
     FM290800 VRB03KT P6SM OVC004=

USA.gov is the U.S. government's official web portal to all federal, state and local government web resources and services.